createdAt,value
2018-09-05T00:00:01.587Z,100223.00
2018-09-05T00:02:29.128Z,100215.00
2018-09-05T00:04:56.680Z,100217.00
2018-09-05T00:07:31.018Z,100223.00
2018-09-05T00:09:58.588Z,100216.00
2018-09-05T00:12:26.126Z,100222.00
2018-09-05T00:14:53.673Z,100222.00
2018-09-05T00:17:21.221Z,100222.00
2018-09-05T00:19:48.775Z,100207.00
2018-09-05T00:22:16.337Z,100214.00
2018-09-05T00:24:43.892Z,100207.00
2018-09-05T00:27:11.427Z,100208.00
2018-09-05T00:29:38.976Z,100213.00
2018-09-05T00:32:06.508Z,100220.00
2018-09-05T00:34:34.050Z,100211.00
2018-09-05T00:37:01.595Z,100211.00
2018-09-05T00:39:29.152Z,100215.00
2018-09-05T00:41:56.716Z,100218.00
2018-09-05T00:44:24.260Z,100220.00
2018-09-05T00:46:51.815Z,100212.00
2018-09-05T00:49:19.351Z,100211.00
2018-09-05T00:51:46.877Z,100216.00
2018-09-05T00:54:14.422Z,100221.00
2018-09-05T00:56:41.950Z,100211.00
2018-09-05T00:59:09.540Z,100223.00
2018-09-05T01:01:37.072Z,100223.00
2018-09-05T01:04:04.852Z,100224.00
2018-09-05T01:06:32.598Z,100223.00
2018-09-05T01:09:00.136Z,100227.00
2018-09-05T01:11:27.721Z,100228.00
2018-09-05T01:13:55.271Z,100234.00
2018-09-05T01:16:23.242Z,100235.00
2018-09-05T01:18:50.779Z,100234.00
2018-09-05T01:21:18.321Z,100231.00
2018-09-05T01:23:45.883Z,100234.00
2018-09-05T01:26:13.440Z,100231.00
2018-09-05T01:28:40.984Z,100234.00
2018-09-05T01:31:08.536Z,100235.00
2018-09-05T01:33:36.459Z,100228.00
2018-09-05T01:36:11.610Z,100228.00
2018-09-05T01:38:39.877Z,100231.00
2018-09-05T01:41:07.438Z,100231.00
2018-09-05T01:43:34.963Z,100235.00
2018-09-05T01:46:02.507Z,100235.00
2018-09-05T01:48:30.043Z,100232.00
2018-09-05T01:50:57.617Z,100237.00
2018-09-05T01:53:25.165Z,100233.00
2018-09-05T01:55:52.708Z,100227.00
2018-09-05T01:58:20.256Z,100232.00
2018-09-05T02:00:47.824Z,100230.00
2018-09-05T02:03:15.378Z,100244.00
2018-09-05T02:05:42.907Z,100234.00
2018-09-05T02:08:10.459Z,100235.00
2018-09-05T02:10:38.029Z,100227.00
2018-09-05T02:13:05.569Z,100236.00
2018-09-05T02:15:33.123Z,100238.00
2018-09-05T02:18:00.663Z,100239.00
2018-09-05T02:20:28.198Z,100239.00
2018-09-05T02:22:55.752Z,100236.00
2018-09-05T02:25:23.329Z,100238.00
2018-09-05T02:27:50.896Z,100242.00
2018-09-05T02:30:18.434Z,100241.00
2018-09-05T02:32:46.010Z,100242.00
2018-09-05T02:35:13.552Z,100254.00
2018-09-05T02:37:41.432Z,100243.00
2018-09-05T02:40:08.978Z,100252.00
2018-09-05T02:42:36.627Z,100239.00
2018-09-05T02:45:04.224Z,100242.00
2018-09-05T02:47:31.748Z,100252.00
2018-09-05T02:49:59.293Z,100247.00
2018-09-05T02:52:26.830Z,100245.00
2018-09-05T02:54:54.441Z,100242.00
2018-09-05T02:57:21.970Z,100240.00
2018-09-05T02:59:49.497Z,100243.00
2018-09-05T03:02:17.036Z,100244.00
2018-09-05T03:04:44.600Z,100235.00
2018-09-05T03:07:12.135Z,100233.00
2018-09-05T03:09:39.705Z,100235.00
2018-09-05T03:12:07.347Z,100240.00
2018-09-05T03:14:34.882Z,100246.00
2018-09-05T03:17:02.684Z,100249.00
2018-09-05T03:19:30.210Z,100243.00
2018-09-05T03:21:57.760Z,100245.00
2018-09-05T03:24:25.333Z,100246.00
2018-09-05T03:26:52.911Z,100248.00
2018-09-05T03:29:20.574Z,100256.00
2018-09-05T03:31:48.125Z,100254.00
2018-09-05T03:34:15.662Z,100244.00
2018-09-05T03:36:43.211Z,100256.00
2018-09-05T03:39:11.430Z,100253.00
2018-09-05T03:41:39.320Z,100263.00
2018-09-05T03:44:06.870Z,100256.00
2018-09-05T03:46:34.421Z,100254.00
2018-09-05T03:49:01.960Z,100266.00
2018-09-05T03:51:29.508Z,100267.00
2018-09-05T03:53:57.045Z,100264.00
2018-09-05T03:56:24.585Z,100263.00
2018-09-05T03:58:52.140Z,100263.00
2018-09-05T04:01:19.686Z,100260.00
2018-09-05T04:03:47.201Z,100270.00
2018-09-05T04:06:19.316Z,100261.00
2018-09-05T04:08:47.089Z,100273.00
2018-09-05T04:11:14.748Z,100265.00
2018-09-05T04:13:42.259Z,100267.00
2018-09-05T04:16:09.785Z,100266.00
2018-09-05T04:18:37.317Z,100280.00
2018-09-05T04:21:05.036Z,100275.00
2018-09-05T04:23:37.181Z,100270.00
2018-09-05T04:26:04.757Z,100270.00
2018-09-05T04:28:32.271Z,100269.00
2018-09-05T04:30:59.808Z,100270.00
2018-09-05T04:33:27.334Z,100275.00
2018-09-05T04:35:54.856Z,100277.00
2018-09-05T04:38:22.371Z,100268.00
2018-09-05T04:40:49.900Z,100275.00
2018-09-05T04:43:17.406Z,100281.00
2018-09-05T04:45:44.929Z,100286.00
2018-09-05T04:48:12.455Z,100290.00
2018-09-05T04:50:39.978Z,100286.00
2018-09-05T04:53:07.533Z,100296.00
2018-09-05T04:55:35.071Z,100299.00
2018-09-05T04:58:02.600Z,100295.00
2018-09-05T05:00:30.150Z,100294.00
2018-09-05T05:02:57.694Z,100298.00
2018-09-05T05:05:25.240Z,100301.00
2018-09-05T05:07:52.743Z,100312.00
2018-09-05T05:10:20.268Z,100303.00
2018-09-05T05:12:47.813Z,100307.00
2018-09-05T05:15:15.344Z,100308.00
2018-09-05T05:17:42.862Z,100310.00
2018-09-05T05:20:10.401Z,100311.00
2018-09-05T05:22:37.938Z,100308.00
2018-09-05T05:25:05.667Z,100311.00
2018-09-05T05:27:33.190Z,100323.00
2018-09-05T05:30:00.717Z,100317.00
2018-09-05T05:32:28.279Z,100323.00
2018-09-05T05:34:55.796Z,100332.00
2018-09-05T05:37:23.338Z,100332.00
2018-09-05T05:39:50.843Z,100325.00
2018-09-05T05:42:18.572Z,100336.00
2018-09-05T05:44:46.105Z,100341.00
2018-09-05T05:47:13.632Z,100336.00
2018-09-05T05:49:41.168Z,100343.00
2018-09-05T05:52:08.686Z,100335.00
2018-09-05T05:54:36.198Z,100337.00
2018-09-05T05:57:03.935Z,100339.00
2018-09-05T05:59:35.194Z,100338.00
2018-09-05T06:02:02.763Z,100344.00
2018-09-05T06:04:30.425Z,100347.00
2018-09-05T06:06:58.002Z,100345.00
2018-09-05T06:09:25.550Z,100353.00
2018-09-05T06:11:53.182Z,100353.00
2018-09-05T06:14:20.932Z,100341.00
2018-09-05T06:16:48.480Z,100346.00
2018-09-05T06:19:16.021Z,100350.00
2018-09-05T06:21:43.580Z,100352.00
2018-09-05T06:24:11.125Z,100362.00
2018-09-05T06:26:38.673Z,100358.00
2018-09-05T06:29:06.239Z,100359.00
2018-09-05T06:31:33.788Z,100364.00
2018-09-05T06:34:01.338Z,100355.00
2018-09-05T06:36:28.882Z,100360.00
2018-09-05T06:38:56.459Z,100365.00
2018-09-05T06:41:23.990Z,100368.00
2018-09-05T06:43:51.555Z,100362.00
2018-09-05T06:46:19.120Z,100374.00
2018-09-05T06:48:46.652Z,100363.00
2018-09-05T06:51:14.211Z,100364.00
2018-09-05T06:53:41.761Z,100376.00
2018-09-05T06:56:09.295Z,100372.00
2018-09-05T06:58:36.883Z,100361.00
2018-09-05T07:01:04.500Z,100371.00
2018-09-05T07:03:32.074Z,100368.00
2018-09-05T07:05:59.637Z,100372.00
2018-09-05T07:08:27.188Z,100362.00
2018-09-05T07:10:54.732Z,100374.00
2018-09-05T07:13:22.281Z,100366.00
2018-09-05T07:15:49.936Z,100374.00
2018-09-05T07:18:17.600Z,100382.00
2018-09-05T07:20:45.187Z,100370.00
2018-09-05T07:23:12.738Z,100372.00
2018-09-05T07:25:40.270Z,100373.00
2018-09-05T07:28:07.829Z,100373.00
2018-09-05T07:30:35.526Z,100381.00
2018-09-05T07:33:02.953Z,100382.00
2018-09-05T07:35:30.524Z,100380.00
2018-09-05T07:37:58.056Z,100373.00
2018-09-05T07:40:25.645Z,100378.00
2018-09-05T07:42:53.220Z,100381.00
2018-09-05T07:45:20.782Z,100376.00
2018-09-05T07:47:48.329Z,100371.00
2018-09-05T07:50:15.868Z,100374.00
2018-09-05T07:52:43.648Z,100377.00
2018-09-05T07:55:11.183Z,100369.00
2018-09-05T07:57:38.742Z,100373.00
2018-09-05T08:00:06.361Z,100378.00
2018-09-05T08:02:33.931Z,100372.00
2018-09-05T08:05:01.481Z,100378.00
2018-09-05T08:07:29.020Z,100380.00
2018-09-05T08:09:56.549Z,100376.00
2018-09-05T08:12:24.098Z,100385.00
2018-09-05T08:14:51.625Z,100382.00
2018-09-05T08:17:19.153Z,100377.00
2018-09-05T08:19:46.688Z,100390.00
2018-09-05T08:22:14.220Z,100389.00
2018-09-05T08:24:41.868Z,100387.00
2018-09-05T08:27:09.342Z,100388.00
2018-09-05T08:29:36.873Z,100391.00
2018-09-05T08:32:04.504Z,100398.00
2018-09-05T08:34:32.015Z,100398.00
2018-09-05T08:36:59.921Z,100398.00
2018-09-05T08:39:27.109Z,100389.00
2018-09-05T08:41:54.702Z,100392.00
2018-09-05T08:44:22.328Z,100386.00
2018-09-05T08:46:49.822Z,100388.00
2018-09-05T08:49:17.287Z,100383.00
2018-09-05T08:51:44.818Z,100383.00
2018-09-05T08:54:12.342Z,100382.00
2018-09-05T08:56:39.855Z,100374.00
2018-09-05T08:59:07.367Z,100376.00
2018-09-05T09:01:36.019Z,100365.00
2018-09-05T09:04:03.559Z,100368.00
2018-09-05T09:06:31.104Z,100372.00
2018-09-05T09:08:58.714Z,100380.00
2018-09-05T09:11:26.241Z,100382.00
2018-09-05T09:13:53.804Z,100384.00
2018-09-05T09:16:21.344Z,100396.00
2018-09-05T09:18:49.129Z,100386.00
2018-09-05T09:21:16.672Z,100393.00
2018-09-05T09:23:44.203Z,100389.00
2018-09-05T09:26:11.751Z,100390.00
2018-09-05T09:28:39.288Z,100382.00
2018-09-05T09:31:07.054Z,100385.00
2018-09-05T09:33:34.594Z,100383.00
2018-09-05T09:36:02.185Z,100378.00
2018-09-05T09:38:29.741Z,100377.00
2018-09-05T09:40:57.273Z,100380.00
2018-09-05T09:43:24.820Z,100371.00
2018-09-05T09:45:52.350Z,100375.00
2018-09-05T09:48:19.905Z,100372.00
2018-09-05T09:50:47.461Z,100369.00
2018-09-05T09:53:15.017Z,100376.00
2018-09-05T09:55:49.277Z,100365.00
2018-09-05T09:58:16.844Z,100360.00
2018-09-05T10:00:50.190Z,100364.00
2018-09-05T10:03:23.572Z,100360.00
2018-09-05T10:05:56.907Z,100369.00
2018-09-05T10:08:31.209Z,100355.00
2018-09-05T10:11:01.737Z,100360.00
2018-09-05T10:13:35.137Z,100366.00
2018-09-05T10:16:08.563Z,100359.00
2018-09-05T10:18:38.447Z,100359.00
2018-09-05T10:21:05.983Z,100352.00
2018-09-05T10:23:33.519Z,100358.00
2018-09-05T10:26:01.039Z,100350.00
2018-09-05T10:28:28.566Z,100351.00
2018-09-05T10:30:56.090Z,100334.00
2018-09-05T10:33:23.602Z,100345.00
2018-09-05T10:35:51.135Z,100340.00
2018-09-05T10:38:18.665Z,100335.00
2018-09-05T10:40:46.193Z,100333.00
2018-09-05T10:43:13.760Z,100331.00
2018-09-05T10:45:41.307Z,100326.00
2018-09-05T10:48:08.865Z,100334.00
2018-09-05T10:50:36.403Z,100319.00
2018-09-05T10:53:03.927Z,100325.00
2018-09-05T10:55:31.477Z,100323.00
2018-09-05T10:57:58.996Z,100309.00
2018-09-05T11:00:26.531Z,100315.00
2018-09-05T11:02:54.059Z,100319.00
2018-09-05T11:05:21.591Z,100326.00
2018-09-05T11:07:49.136Z,100324.00
2018-09-05T11:10:16.734Z,100318.00
2018-09-05T11:12:44.242Z,100314.00
2018-09-05T11:15:11.769Z,100313.00
2018-09-05T11:17:39.294Z,100317.00
2018-09-05T11:20:07.738Z,100309.00
2018-09-05T11:22:35.272Z,100316.00
2018-09-05T11:25:02.832Z,100302.00
2018-09-05T11:27:30.391Z,100311.00
2018-09-05T11:29:57.956Z,100309.00
2018-09-05T11:32:25.495Z,100306.00
2018-09-05T11:34:53.073Z,100302.00
2018-09-05T11:37:20.643Z,100307.00
2018-09-05T11:39:48.199Z,100303.00
2018-09-05T11:42:15.731Z,100299.00
2018-09-05T11:44:43.283Z,100296.00
2018-09-05T11:47:10.811Z,100291.00
2018-09-05T11:49:38.368Z,100296.00
2018-09-05T11:52:05.899Z,100293.00
2018-09-05T11:54:33.450Z,100287.00
2018-09-05T11:57:00.995Z,100289.00
2018-09-05T11:59:28.554Z,100288.00
2018-09-05T12:01:56.268Z,100277.00
2018-09-05T12:04:23.855Z,100288.00
2018-09-05T12:06:51.426Z,100285.00
2018-09-05T12:09:18.953Z,100282.00
2018-09-05T12:11:46.513Z,100283.00
2018-09-05T12:14:14.036Z,100279.00
2018-09-05T12:16:41.570Z,100276.00
2018-09-05T12:19:09.129Z,100277.00
2018-09-05T12:21:36.660Z,100272.00
2018-09-05T12:24:04.200Z,100283.00
2018-09-05T12:26:31.943Z,100271.00
2018-09-05T12:28:59.497Z,100284.00
2018-09-05T12:31:27.037Z,100280.00
2018-09-05T12:33:54.562Z,100278.00
2018-09-05T12:36:22.094Z,100273.00
2018-09-05T12:38:49.607Z,100269.00
2018-09-05T12:41:17.119Z,100274.00
2018-09-05T12:43:44.670Z,100267.00
2018-09-05T12:46:12.215Z,100259.00
2018-09-05T12:48:39.901Z,100254.00
2018-09-05T12:51:07.485Z,100253.00
2018-09-05T12:53:35.004Z,100243.00
2018-09-05T12:56:02.523Z,100241.00
2018-09-05T12:58:30.047Z,100247.00
2018-09-05T13:00:57.586Z,100237.00
2018-09-05T13:03:25.118Z,100239.00
2018-09-05T13:05:52.657Z,100232.00
2018-09-05T13:08:26.094Z,100227.00
2018-09-05T13:11:06.553Z,100220.00
2018-09-05T13:13:34.090Z,100222.00
2018-09-05T13:16:01.792Z,100219.00
2018-09-05T13:18:29.321Z,100219.00
2018-09-05T13:20:56.865Z,100218.00
2018-09-05T13:23:24.562Z,100224.00
2018-09-05T13:25:52.320Z,100217.00
2018-09-05T13:28:19.839Z,100220.00
2018-09-05T13:30:47.375Z,100218.00
2018-09-05T13:33:14.974Z,100224.00
2018-09-05T13:35:42.812Z,100222.00
2018-09-05T13:38:10.337Z,100225.00
2018-09-05T13:40:38.040Z,100212.00
2018-09-05T13:43:05.571Z,100220.00
2018-09-05T13:45:33.103Z,100222.00
2018-09-05T13:48:00.622Z,100218.00
2018-09-05T13:50:28.190Z,100222.00
2018-09-05T13:52:55.742Z,100216.00
2018-09-05T13:55:23.262Z,100220.00
2018-09-05T13:57:50.762Z,100216.00
2018-09-05T14:00:18.294Z,100220.00
2018-09-05T14:02:46.730Z,100223.00
2018-09-05T14:05:14.748Z,100217.00
2018-09-05T14:07:42.586Z,100219.00
2018-09-05T14:10:09.958Z,100221.00
2018-09-05T14:12:37.493Z,100225.00
2018-09-05T14:15:05.196Z,100213.00
2018-09-05T14:17:33.042Z,100217.00
2018-09-05T14:20:00.575Z,100213.00
2018-09-05T14:22:28.105Z,100219.00
2018-09-05T14:24:55.635Z,100213.00
2018-09-05T14:27:23.294Z,100215.00
2018-09-05T14:29:50.811Z,100217.00
2018-09-05T14:32:19.119Z,100217.00
2018-09-05T14:34:46.656Z,100214.00
2018-09-05T14:37:14.195Z,100209.00
2018-09-05T14:39:41.698Z,100215.00
2018-09-05T14:42:09.212Z,100213.00
2018-09-05T14:44:36.740Z,100207.00
2018-09-05T14:47:04.295Z,100207.00
2018-09-05T14:49:31.814Z,100215.00
2018-09-05T14:51:59.343Z,100215.00
2018-09-05T14:54:26.894Z,100202.00
2018-09-05T14:56:54.394Z,100211.00
2018-09-05T14:59:21.947Z,100213.00
2018-09-05T15:01:49.489Z,100206.00
2018-09-05T15:04:17.041Z,100213.00
2018-09-05T15:06:44.658Z,100209.00
2018-09-05T15:09:12.724Z,100208.00
2018-09-05T15:11:40.497Z,100209.00
2018-09-05T15:14:08.884Z,100214.00
2018-09-05T15:16:36.440Z,100200.00
2018-09-05T15:19:04.228Z,100214.00
2018-09-05T15:21:31.797Z,100209.00
2018-09-05T15:23:59.456Z,100198.00
2018-09-05T15:26:27.003Z,100196.00
2018-09-05T15:28:54.600Z,100195.00
2018-09-05T15:31:22.313Z,100200.00
2018-09-05T15:33:49.874Z,100196.00
2018-09-05T15:36:17.821Z,100190.00
2018-09-05T15:38:45.952Z,100188.00
2018-09-05T15:41:13.476Z,100191.00
2018-09-05T15:43:41.011Z,100175.00
2018-09-05T15:46:08.574Z,100182.00
2018-09-05T15:48:36.112Z,100186.00
2018-09-05T15:51:03.702Z,100188.00
2018-09-05T15:53:31.261Z,100179.00
2018-09-05T15:55:58.832Z,100181.00
2018-09-05T15:58:26.589Z,100172.00
2018-09-05T16:00:54.380Z,100180.00
2018-09-05T16:03:21.930Z,100179.00
2018-09-05T16:05:49.478Z,100182.00
2018-09-05T16:08:17.047Z,100180.00
2018-09-05T16:10:44.579Z,100175.00
2018-09-05T16:13:12.127Z,100170.00
2018-09-05T16:15:39.783Z,100171.00
2018-09-05T16:18:07.218Z,100164.00
2018-09-05T16:20:34.773Z,100173.00
2018-09-05T16:23:02.332Z,100166.00
2018-09-05T16:25:30.040Z,100167.00
2018-09-05T16:27:57.600Z,100171.00
2018-09-05T16:30:25.277Z,100167.00
2018-09-05T16:32:52.946Z,100175.00
2018-09-05T16:35:20.495Z,100173.00
2018-09-05T16:37:48.035Z,100174.00
2018-09-05T16:40:15.588Z,100167.00
2018-09-05T16:42:43.127Z,100168.00
2018-09-05T16:45:10.713Z,100168.00
2018-09-05T16:47:38.267Z,100174.00
2018-09-05T16:50:15.617Z,100169.00
2018-09-05T16:52:43.173Z,100171.00
2018-09-05T16:55:10.729Z,100173.00
2018-09-05T16:57:38.274Z,100178.00
2018-09-05T17:00:06.012Z,100177.00
2018-09-05T17:02:33.598Z,100180.00
2018-09-05T17:05:01.162Z,100175.00
2018-09-05T17:07:28.745Z,100172.00
2018-09-05T17:09:56.307Z,100166.00
2018-09-05T17:12:23.872Z,100170.00
2018-09-05T17:17:56.190Z,100180.00
2018-09-05T17:20:23.753Z,100182.00
2018-09-05T17:22:51.333Z,100176.00
2018-09-05T17:25:18.937Z,100174.00
2018-09-05T17:28:08.361Z,100175.00
2018-09-05T17:30:35.932Z,100172.00
2018-09-05T17:33:03.516Z,100173.00
2018-09-05T17:35:31.063Z,100171.00
2018-09-05T17:38:06.632Z,100174.00
2018-09-05T17:40:34.196Z,100174.00
2018-09-05T17:43:01.793Z,100171.00
2018-09-05T17:45:29.355Z,100169.00
2018-09-05T17:47:56.967Z,100177.00
2018-09-05T17:50:24.528Z,100177.00
2018-09-05T17:52:52.090Z,100179.00
2018-09-05T17:55:19.672Z,100177.00
2018-09-05T17:57:47.247Z,100179.00
2018-09-05T18:06:22.415Z,100181.00
2018-09-05T18:08:50.151Z,100176.00
2018-09-05T18:11:17.789Z,100171.00
2018-09-05T18:13:48.995Z,100170.00
2018-09-05T18:16:16.579Z,100176.00
2018-09-05T18:18:44.195Z,100176.00
2018-09-05T18:21:11.751Z,100179.00
2018-09-05T18:23:39.321Z,100181.00
2018-09-05T18:26:07.151Z,100185.00
2018-09-05T18:28:34.740Z,100183.00
2018-09-05T18:31:02.347Z,100181.00
2018-09-05T18:33:29.926Z,100180.00
2018-09-05T18:35:57.527Z,100190.00
2018-09-05T18:38:25.133Z,100196.00
2018-09-05T18:40:52.745Z,100178.00
2018-09-05T18:43:20.333Z,100188.00
2018-09-05T18:45:48.030Z,100186.00
2018-09-05T18:48:15.614Z,100185.00
2018-09-05T18:50:43.162Z,100185.00
2018-09-05T18:53:11.752Z,100186.00
2018-09-05T18:55:40.653Z,100187.00
2018-09-05T18:58:08.424Z,100178.00
2018-09-05T19:00:36.323Z,100188.00
2018-09-05T19:03:03.934Z,100182.00
2018-09-05T19:05:31.518Z,100178.00
2018-09-05T19:07:59.078Z,100172.00
2018-09-05T19:10:26.635Z,100177.00
2018-09-05T19:12:54.794Z,100172.00
2018-09-05T19:15:22.361Z,100174.00
2018-09-05T19:17:50.111Z,100169.00
2018-09-05T19:20:17.703Z,100175.00
2018-09-05T19:22:45.278Z,100182.00
2018-09-05T19:25:24.823Z,100173.00
2018-09-05T19:27:52.402Z,100183.00
2018-09-05T19:30:19.972Z,100185.00
2018-09-05T19:32:47.522Z,100177.00
2018-09-05T19:35:15.081Z,100184.00
2018-09-05T19:41:12.868Z,100164.00
2018-09-05T19:43:47.672Z,100162.00
2018-09-05T19:46:34.617Z,100162.00
2018-09-05T19:49:02.248Z,100159.00
2018-09-05T19:51:54.214Z,100154.00
2018-09-05T19:54:21.801Z,100166.00
2018-09-05T19:56:49.430Z,100160.00
2018-09-05T19:59:17.062Z,100158.00
2018-09-05T20:01:44.574Z,100166.00
2018-09-05T20:04:12.154Z,100166.00
2018-09-05T20:06:39.749Z,100168.00
2018-09-05T20:09:13.436Z,100158.00
2018-09-05T20:11:40.995Z,100165.00
2018-09-05T20:14:13.490Z,100168.00
2018-09-05T20:17:11.705Z,100167.00
2018-09-05T20:19:39.300Z,100168.00
2018-09-05T20:22:09.103Z,100174.00
2018-09-05T20:25:07.943Z,100176.00
2018-09-05T20:27:35.495Z,100162.00
2018-09-05T20:30:03.113Z,100167.00
2018-09-05T20:35:43.412Z,100161.00
2018-09-05T20:38:11.009Z,100168.00
2018-09-05T20:40:38.572Z,100171.00
2018-09-05T20:43:06.167Z,100167.00
2018-09-05T20:46:01.334Z,100169.00
2018-09-05T20:48:28.890Z,100169.00
2018-09-05T20:50:56.426Z,100165.00
2018-09-05T20:53:23.977Z,100173.00
2018-09-05T20:55:51.527Z,100163.00
2018-09-05T20:58:19.105Z,100155.00
2018-09-05T21:00:46.649Z,100159.00
2018-09-05T21:03:14.205Z,100151.00
2018-09-05T21:05:41.750Z,100154.00
2018-09-05T21:08:09.286Z,100146.00
2018-09-05T21:10:36.810Z,100154.00
2018-09-05T21:13:04.421Z,100148.00
2018-09-05T21:15:31.965Z,100153.00
2018-09-05T21:17:59.554Z,100155.00
2018-09-05T21:20:27.030Z,100161.00
2018-09-05T21:22:54.568Z,100158.00
2018-09-05T21:25:22.094Z,100152.00
2018-09-05T21:27:49.612Z,100151.00
2018-09-05T21:30:17.153Z,100145.00
2018-09-05T21:32:44.675Z,100145.00
2018-09-05T21:35:12.193Z,100139.00
2018-09-05T21:37:39.748Z,100153.00
2018-09-05T21:40:07.332Z,100152.00
2018-09-05T21:42:34.837Z,100154.00
2018-09-05T21:45:02.383Z,100147.00
2018-09-05T21:47:31.952Z,100144.00
2018-09-05T21:49:59.502Z,100148.00
2018-09-05T21:52:27.022Z,100145.00
2018-09-05T21:54:54.569Z,100148.00
2018-09-05T21:57:22.096Z,100148.00
2018-09-05T21:59:49.619Z,100150.00
2018-09-05T22:02:17.149Z,100143.00
2018-09-05T22:04:44.711Z,100139.00
2018-09-05T22:07:12.246Z,100144.00
2018-09-05T22:09:39.796Z,100139.00
2018-09-05T22:12:07.368Z,100141.00
2018-09-05T22:14:34.925Z,100147.00
2018-09-05T22:17:02.489Z,100132.00
2018-09-05T22:19:30.037Z,100139.00
2018-09-05T22:21:57.588Z,100137.00
2018-09-05T22:24:25.135Z,100145.00
2018-09-05T22:26:52.685Z,100147.00
2018-09-05T22:29:20.271Z,100145.00
2018-09-05T22:31:47.824Z,100144.00
2018-09-05T22:34:15.397Z,100136.00
2018-09-05T22:36:42.924Z,100145.00
2018-09-05T22:39:10.525Z,100141.00
2018-09-05T22:41:38.066Z,100147.00
2018-09-05T22:45:25.756Z,100142.00
2018-09-05T22:48:42.892Z,100138.00
2018-09-05T22:51:39.057Z,100137.00
2018-09-05T22:54:29.701Z,100135.00
2018-09-05T23:00:16.425Z,100132.00
2018-09-05T23:03:01.773Z,100136.00
2018-09-05T23:07:51.120Z,100128.00
2018-09-05T23:10:36.189Z,100130.00
2018-09-05T23:13:21.297Z,100125.00
2018-09-05T23:16:06.400Z,100126.00
2018-09-05T23:20:03.891Z,100131.00
2018-09-05T23:22:48.985Z,100122.00
2018-09-05T23:25:16.533Z,100123.00
2018-09-05T23:27:44.101Z,100118.00
2018-09-05T23:30:11.666Z,100107.00
2018-09-05T23:32:39.233Z,100119.00
2018-09-05T23:35:06.805Z,100109.00
2018-09-05T23:37:34.362Z,100115.00
2018-09-05T23:40:01.938Z,100113.00
2018-09-05T23:42:29.495Z,100112.00
2018-09-05T23:44:57.037Z,100108.00
2018-09-05T23:47:24.591Z,100103.00
2018-09-05T23:49:52.162Z,100102.00
2018-09-05T23:52:19.725Z,100098.00
2018-09-05T23:54:47.301Z,100095.00
2018-09-05T23:57:14.874Z,100092.00
2018-09-05T23:59:42.429Z,100100.00
